메인 페이지
METAR-TAF:

METAR-TAF

공항 :

Blue River, 브리티시컬럼비아, 캐나다

위도: 52-08N, 경도: 119-18W, 고도: 679m

현재 날씨관측

예보는 10 시간 32분 전, 00:00시(UTC)에 발표되었습니다.
4kt북서풍과 동북동풍을 오가는
온도 -15°C
습도 71%
기압 1025 hPa
시정: 24.1km
고도 9300ft 상공 구름 많음

METAR: CYCP 180000Z 35004KT 310V070 15SM BKN093 M15/M19 A3027 RMK AC5 LAST STFD OBS/NEXT 181400Z SLP314

시각: 02:32 (10:32 UTC)


TAF: 누락

4,000개 이상의 공항 관측 자료 및 예보 (METAR 및 TAF 보고).

지도상에서 검색 가능한 기상관측소가 노란 점과 빨간 점으로 표시되어 있습니다.

기상관측소 명을 보려면 표시 위로 마우스를 이동하세요.

날씨 관측과 예보를 보려면 클릭하세요.

지도 변경 : 확대하려면 엑스 표시가 있는 녹색 버튼, 축소하려면 빼기 표시가 있는 녹색 버튼, 다음 페이지의 지도를 보려면 녹색 화살표를 클릭하세요.


METAR-TAF: